createdAt,value
2017-06-08T00:00:28.198Z,68.17
2017-06-08T00:01:08.671Z,68.07
2017-06-08T00:01:49.137Z,68.17
2017-06-08T00:02:29.640Z,68.27
2017-06-08T00:03:10.176Z,68.17
2017-06-08T00:03:50.650Z,68.07
2017-06-08T00:04:31.329Z,68.74
2017-06-08T00:05:11.821Z,69.03
2017-06-08T00:05:52.374Z,68.36
2017-06-08T00:06:32.826Z,68.84
2017-06-08T00:07:13.315Z,68.36
2017-06-08T00:07:53.857Z,68.07
2017-06-08T00:08:34.330Z,67.69
2017-06-08T00:09:14.813Z,68.27
2017-06-08T00:09:55.366Z,68.17
2017-06-08T00:10:35.849Z,68.07
2017-06-08T00:11:16.312Z,68.65
2017-06-08T00:11:56.794Z,68.74
2017-06-08T00:12:37.318Z,68.74
2017-06-08T00:13:17.818Z,68.55
2017-06-08T00:13:58.325Z,68.74
2017-06-08T00:14:38.796Z,69.32
2017-06-08T00:15:19.280Z,69.13
2017-06-08T00:15:59.786Z,69.51
2017-06-08T00:16:40.264Z,69.03
2017-06-08T00:17:20.750Z,69.13
2017-06-08T00:18:01.259Z,69.32
2017-06-08T00:18:41.770Z,69.7
2017-06-08T00:19:22.279Z,69.8
2017-06-08T00:20:02.767Z,69.51
2017-06-08T00:20:43.215Z,69.42
2017-06-08T00:21:23.764Z,69.13
2017-06-08T00:22:04.263Z,69.42
2017-06-08T00:22:44.729Z,69.89
2017-06-08T00:23:25.234Z,69.6
2017-06-08T00:24:05.707Z,69.6
2017-06-08T00:24:46.186Z,69.8
2017-06-08T00:25:26.689Z,69.7
2017-06-08T00:26:07.192Z,69.13
2017-06-08T00:26:47.714Z,69.32
2017-06-08T00:27:28.157Z,69.03
2017-06-08T00:28:08.686Z,69.32
2017-06-08T00:28:49.147Z,69.03
2017-06-08T00:29:29.650Z,68.65
2017-06-08T00:30:10.157Z,69.23
2017-06-08T00:30:50.631Z,68.94
2017-06-08T00:31:31.118Z,68.65
2017-06-08T00:32:11.597Z,68.74
2017-06-08T00:32:52.060Z,68.74
2017-06-08T00:33:32.537Z,68.94
2017-06-08T00:34:13.049Z,69.32
2017-06-08T00:34:53.495Z,69.13
2017-06-08T00:35:33.982Z,69.23
2017-06-08T00:36:14.505Z,68.55
2017-06-08T00:36:54.996Z,68.65
2017-06-08T00:37:35.482Z,68.74
2017-06-08T00:38:16.050Z,68.74
2017-06-08T00:38:56.537Z,68.27
2017-06-08T00:39:37.015Z,68.07
2017-06-08T00:40:17.541Z,68.27
2017-06-08T00:40:58.077Z,68.07
2017-06-08T00:41:38.537Z,68.36
2017-06-08T00:42:19.033Z,68.65
2017-06-08T00:42:59.539Z,68.17
2017-06-08T00:43:40.016Z,68.65
2017-06-08T00:44:20.490Z,69.03
2017-06-08T00:45:01.034Z,68.65
2017-06-08T00:45:41.532Z,68.46
2017-06-08T00:46:22.019Z,68.46
2017-06-08T00:47:02.557Z,68.74
2017-06-08T00:47:43.047Z,68.55
2017-06-08T00:48:23.548Z,68.65
2017-06-08T00:49:04.042Z,68.55
2017-06-08T00:49:44.520Z,68.74
2017-06-08T00:50:25.018Z,68.65
2017-06-08T00:51:05.532Z,68.65
2017-06-08T00:51:46.046Z,68.55
2017-06-08T00:52:26.539Z,68.65
2017-06-08T00:53:07.031Z,68.74
2017-06-08T00:53:47.459Z,68.74
2017-06-08T00:54:27.974Z,68.27
2017-06-08T00:55:08.551Z,68.17
2017-06-08T00:55:49.080Z,67.98
2017-06-08T00:56:29.591Z,67.98
2017-06-08T00:57:10.077Z,67.98
2017-06-08T00:57:50.717Z,68.17
2017-06-08T00:58:31.268Z,68.07
2017-06-08T00:59:11.745Z,68.07
2017-06-08T00:59:52.229Z,68.07
2017-06-08T01:00:32.730Z,67.88
2017-06-08T01:01:13.191Z,67.79
2017-06-08T01:01:53.770Z,67.79
2017-06-08T01:02:34.256Z,67.6
2017-06-08T01:03:14.745Z,68.07
2017-06-08T01:03:55.256Z,67.79
2017-06-08T01:04:35.721Z,67.88
2017-06-08T01:05:16.239Z,67.88
2017-06-08T01:05:56.709Z,67.21
2017-06-08T01:06:37.211Z,67.02
2017-06-08T01:07:17.730Z,67.41
2017-06-08T01:07:58.206Z,67.31
2017-06-08T01:08:38.724Z,67.5
2017-06-08T01:09:19.187Z,67.5
2017-06-08T01:09:59.688Z,67.69
2017-06-08T01:10:40.246Z,67.6
2017-06-08T01:11:20.732Z,67.88
2017-06-08T01:12:01.187Z,67.69
2017-06-08T01:12:41.681Z,67.69
2017-06-08T01:13:22.201Z,67.69
2017-06-08T01:14:02.667Z,67.88
2017-06-08T01:14:43.138Z,67.98
2017-06-08T01:15:23.669Z,67.69
2017-06-08T01:16:04.127Z,68.07
2017-06-08T01:16:44.618Z,67.6
2017-06-08T01:17:25.112Z,67.79
2017-06-08T01:18:05.608Z,67.6
2017-06-08T01:18:46.100Z,67.6
2017-06-08T01:19:26.609Z,67.6
2017-06-08T01:20:07.124Z,67.79
2017-06-08T01:20:47.574Z,67.6
2017-06-08T01:21:28.057Z,67.88
2017-06-08T01:22:08.545Z,67.79
2017-06-08T01:22:49.079Z,68.17
2017-06-08T01:23:29.631Z,68.07
2017-06-08T01:24:10.119Z,68.27
2017-06-08T01:24:50.643Z,68.17
2017-06-08T01:25:31.134Z,68.27
2017-06-08T01:26:11.588Z,68.46
2017-06-08T01:26:52.083Z,68.55
2017-06-08T01:27:32.599Z,67.98
2017-06-08T01:28:13.050Z,68.07
2017-06-08T01:28:53.586Z,68.17
2017-06-08T01:29:34.086Z,68.07
2017-06-08T01:30:14.581Z,67.79
2017-06-08T01:30:55.055Z,67.98
2017-06-08T01:31:35.555Z,67.79
2017-06-08T01:32:16.081Z,67.69
2017-06-08T01:32:56.556Z,67.88
2017-06-08T01:33:37.068Z,67.88
2017-06-08T01:34:17.559Z,68.17
2017-06-08T01:34:58.020Z,68.07
2017-06-08T01:35:38.517Z,67.88
2017-06-08T01:36:19.021Z,67.69
2017-06-08T01:36:59.557Z,67.69
2017-06-08T01:37:40.049Z,68.07
2017-06-08T01:38:20.496Z,68.07
2017-06-08T01:39:00.997Z,68.36
2017-06-08T01:39:41.470Z,67.98
2017-06-08T01:40:21.998Z,68.55
2017-06-08T01:41:02.495Z,68.07
2017-06-08T01:41:43.006Z,67.98
2017-06-08T01:42:23.500Z,67.98
2017-06-08T01:43:03.964Z,68.07
2017-06-08T01:43:44.445Z,67.88
2017-06-08T01:44:24.935Z,68.27
2017-06-08T01:45:05.454Z,68.17
2017-06-08T01:45:45.891Z,68.36
2017-06-08T01:46:26.402Z,68.17
2017-06-08T01:47:06.911Z,68.65
2017-06-08T01:47:47.351Z,68.46
2017-06-08T01:48:27.861Z,68.36
2017-06-08T01:49:08.329Z,68.27
2017-06-08T01:49:48.862Z,67.98
2017-06-08T01:50:29.350Z,68.36
2017-06-08T01:51:09.839Z,68.17
2017-06-08T01:51:50.303Z,68.55
2017-06-08T01:52:30.811Z,68.84
2017-06-08T01:53:11.304Z,68.33
2017-06-08T01:53:51.832Z,68.62
2017-06-08T01:54:32.326Z,68.33
2017-06-08T01:55:12.810Z,68.55
2017-06-08T01:55:53.286Z,68.62
2017-06-08T01:56:33.717Z,68.52
2017-06-08T01:57:14.232Z,68.62
2017-06-08T01:57:54.770Z,69.29
2017-06-08T01:58:35.241Z,69
2017-06-08T01:59:15.731Z,68.9
2017-06-08T01:59:56.228Z,68.9
2017-06-08T02:00:36.733Z,69.38
2017-06-08T02:01:17.208Z,69.38
2017-06-08T02:01:57.682Z,69.29
2017-06-08T02:02:38.194Z,69.29
2017-06-08T02:03:18.714Z,69.38
2017-06-08T02:03:59.200Z,69.86
2017-06-08T02:04:39.696Z,69.48
2017-06-08T02:05:20.191Z,69.57
2017-06-08T02:06:00.712Z,69.57
2017-06-08T02:06:41.214Z,69.67
2017-06-08T02:07:21.813Z,69.48
2017-06-08T02:08:02.290Z,69.57
2017-06-08T02:08:42.753Z,69.29
2017-06-08T02:09:23.281Z,69.29
2017-06-08T02:10:03.773Z,69.67
2017-06-08T02:10:44.249Z,69.76
2017-06-08T02:11:24.767Z,69.76
2017-06-08T02:12:05.215Z,69.57
2017-06-08T02:12:45.785Z,70.15
2017-06-08T02:13:26.236Z,70.62
2017-06-08T02:14:06.715Z,70.91
2017-06-08T02:14:47.231Z,70.81
2017-06-08T02:15:27.733Z,70.72
2017-06-08T02:16:08.224Z,70.72
2017-06-08T02:16:48.711Z,70.91
2017-06-08T02:17:29.790Z,70.62
2017-06-08T02:18:10.282Z,71.01
2017-06-08T02:18:50.748Z,71.01
2017-06-08T02:19:31.242Z,71.01
2017-06-08T02:20:11.751Z,71.68
2017-06-08T02:20:52.242Z,71.48
2017-06-08T02:21:32.726Z,71.48
2017-06-08T02:22:13.240Z,71.58
2017-06-08T02:22:53.741Z,71.3
2017-06-08T02:23:34.252Z,71.39
2017-06-08T02:24:14.770Z,71.58
2017-06-08T02:24:55.271Z,71.3
2017-06-08T02:25:35.764Z,71.48
2017-06-08T02:26:16.269Z,71.58
2017-06-08T02:26:56.778Z,71.3
2017-06-08T02:27:37.253Z,71.58
2017-06-08T02:28:17.763Z,71.48
2017-06-08T02:28:58.274Z,71.39
2017-06-08T02:29:38.758Z,71.97
2017-06-08T02:30:19.271Z,71.68
2017-06-08T02:30:59.791Z,71.68
2017-06-08T02:31:40.303Z,71.48
2017-06-08T02:32:20.821Z,71.2
2017-06-08T02:33:01.331Z,71.48
2017-06-08T02:33:41.859Z,71.3
2017-06-08T02:34:22.372Z,71.3
2017-06-08T02:35:02.886Z,71.11
2017-06-08T02:35:43.400Z,71.39
2017-06-08T02:36:23.945Z,71.58
2017-06-08T02:37:04.465Z,71.2
2017-06-08T02:37:44.949Z,71.58
2017-06-08T02:39:38.018Z,71.68
2017-06-08T02:40:18.541Z,71.39
2017-06-08T02:40:59.091Z,71.39
2017-06-08T02:41:39.572Z,71.48
2017-06-08T02:42:20.088Z,71.68
2017-06-08T02:43:00.610Z,71.39
2017-06-08T02:43:41.120Z,71.2
2017-06-08T02:44:21.631Z,71.2
2017-06-08T02:45:02.153Z,71.2
2017-06-08T02:45:42.667Z,71.87
2017-06-08T02:46:23.174Z,71.2
2017-06-08T02:47:03.691Z,71.77
2017-06-08T02:47:44.220Z,71.3
2017-06-08T02:48:24.713Z,71.3
2017-06-08T02:49:05.231Z,71.58
2017-06-08T02:49:45.747Z,71.39
2017-06-08T02:50:26.284Z,71.01
2017-06-08T02:51:06.764Z,71.01
2017-06-08T02:51:47.275Z,71.48
2017-06-08T02:52:27.744Z,71.68
2017-06-08T02:53:08.246Z,71.01
2017-06-08T02:53:48.767Z,70.97
2017-06-08T02:54:29.289Z,71.26
2017-06-08T02:55:09.798Z,71.39
2017-06-08T02:55:50.314Z,71.16
2017-06-08T02:56:30.827Z,71.64
2017-06-08T02:57:11.407Z,71.64
2017-06-08T02:57:51.944Z,70.97
2017-06-08T02:58:32.437Z,71.45
2017-06-08T02:59:12.958Z,71.68
2017-06-08T02:59:53.463Z,70.81
2017-06-08T03:00:33.964Z,70.81
2017-06-08T03:01:14.483Z,71.11
2017-06-08T03:01:54.993Z,71.16
2017-06-08T03:02:35.492Z,71.01
2017-06-08T03:03:16.015Z,71.26
2017-06-08T03:03:56.510Z,71.01
2017-06-08T03:04:37.023Z,70.53
2017-06-08T03:05:17.519Z,70.81
2017-06-08T03:05:58.037Z,70.72
2017-06-08T03:06:38.560Z,70.81
2017-06-08T03:07:19.068Z,70.62
2017-06-08T03:07:59.606Z,70.62
2017-06-08T03:08:40.113Z,70.72
2017-06-08T03:09:20.634Z,70.81
2017-06-08T03:10:01.129Z,70.43
2017-06-08T03:10:41.656Z,70.24
2017-06-08T03:11:22.174Z,70.62
2017-06-08T03:12:02.686Z,70.62
2017-06-08T03:12:43.272Z,70.72
2017-06-08T03:13:23.793Z,70.72
2017-06-08T03:14:04.297Z,70.81
2017-06-08T03:14:44.819Z,70.81
2017-06-08T03:15:25.341Z,70.53
2017-06-08T03:16:05.860Z,70.62
2017-06-08T03:16:46.373Z,70.81
2017-06-08T03:17:26.896Z,71.01
2017-06-08T03:18:07.438Z,70.53
2017-06-08T03:18:47.855Z,70.72
2017-06-08T03:19:28.353Z,70.81
2017-06-08T03:20:08.842Z,70.91
2017-06-08T03:20:49.370Z,70.81
2017-06-08T03:21:29.823Z,70.53
2017-06-08T03:22:10.372Z,70.43
2017-06-08T03:22:50.870Z,71.01
2017-06-08T03:23:31.343Z,70.72
2017-06-08T03:24:11.863Z,71.01
2017-06-08T03:24:52.396Z,71.3
2017-06-08T03:25:32.839Z,71.55
2017-06-08T03:26:13.369Z,71.2
2017-06-08T03:26:53.878Z,70.87
2017-06-08T03:27:34.376Z,71.58
2017-06-08T03:28:14.881Z,71.01
2017-06-08T03:28:55.404Z,71.01
2017-06-08T03:29:35.929Z,71.39
2017-06-08T03:30:16.422Z,71.39
2017-06-08T03:30:56.911Z,71.58
2017-06-08T03:31:37.463Z,71.39
2017-06-08T03:32:17.964Z,71.48
2017-06-08T03:32:58.506Z,71.68
2017-06-08T03:33:38.982Z,71.2
2017-06-08T03:34:19.514Z,71.39
2017-06-08T03:35:00.005Z,71.3
2017-06-08T03:35:40.537Z,71.45
2017-06-08T03:36:21.053Z,71.39
2017-06-08T03:37:01.543Z,71.26
2017-06-08T03:37:42.081Z,70.87
2017-06-08T03:38:22.575Z,71.3
2017-06-08T03:39:03.108Z,71.2
2017-06-08T03:39:43.616Z,71.39
2017-06-08T03:40:24.152Z,71.68
2017-06-08T03:41:04.671Z,71.3
2017-06-08T03:43:02.354Z,71.11
2017-06-08T03:43:42.859Z,71.01
2017-06-08T03:44:23.374Z,70.81
2017-06-08T03:45:03.914Z,71.2
2017-06-08T03:45:44.438Z,70.81
2017-06-08T03:46:24.964Z,70.91
2017-06-08T03:47:05.482Z,70.72
2017-06-08T03:47:45.991Z,70.81
2017-06-08T03:48:26.515Z,70.43
2017-06-08T03:49:07.037Z,70.43
2017-06-08T03:49:47.569Z,70.91
2017-06-08T03:50:28.088Z,70.81
2017-06-08T03:51:08.609Z,70.81
2017-06-08T03:51:49.119Z,70.62
2017-06-08T03:52:29.627Z,70.72
2017-06-08T03:53:10.141Z,70.62
2017-06-08T03:53:50.669Z,70.62
2017-06-08T03:54:31.181Z,70.72
2017-06-08T03:55:11.702Z,70.81
2017-06-08T03:55:52.226Z,70.53
2017-06-08T03:56:32.703Z,70.62
2017-06-08T03:57:13.226Z,70.72
2017-06-08T03:57:53.732Z,70.53
2017-06-08T03:58:34.251Z,70.62
2017-06-08T03:59:14.766Z,70.24
2017-06-08T03:59:55.286Z,70.34
2017-06-08T04:00:35.778Z,70.62
2017-06-08T04:01:16.283Z,70.34
2017-06-08T04:01:56.793Z,70.24
2017-06-08T04:02:37.406Z,70.43
2017-06-08T04:03:17.824Z,70.62
2017-06-08T04:03:58.324Z,70.34
2017-06-08T04:04:38.847Z,70.05
2017-06-08T04:05:19.374Z,70.34
2017-06-08T04:05:59.880Z,69.32
2017-06-08T04:06:40.406Z,69.23
2017-06-08T04:07:20.937Z,69.7
2017-06-08T04:08:01.450Z,69.51
2017-06-08T04:08:41.966Z,69.32
2017-06-08T04:09:22.474Z,69.51
2017-06-08T04:10:02.985Z,69.6
2017-06-08T04:10:43.525Z,69.32
2017-06-08T04:11:24.031Z,69.32
2017-06-08T04:12:04.550Z,69.8
2017-06-08T04:12:45.060Z,69.32
2017-06-08T04:13:25.551Z,69.51
2017-06-08T04:14:06.072Z,69.42
2017-06-08T04:14:46.564Z,69.8
2017-06-08T04:15:27.092Z,69.51
2017-06-08T04:16:07.597Z,69.03
2017-06-08T04:16:48.110Z,69.51
2017-06-08T04:17:28.583Z,69.42
2017-06-08T04:18:09.103Z,69.51
2017-06-08T04:18:49.616Z,69.32
2017-06-08T04:19:30.139Z,69.03
2017-06-08T04:20:10.677Z,69.26
2017-06-08T04:20:51.193Z,69.03
2017-06-08T04:21:31.696Z,69.32
2017-06-08T04:22:12.191Z,69.51
2017-06-08T04:22:52.705Z,69.17
2017-06-08T04:23:33.232Z,68.87
2017-06-08T04:24:13.703Z,69.07
2017-06-08T04:24:54.217Z,68.68
2017-06-08T04:25:34.744Z,68.59
2017-06-08T04:26:15.235Z,68.4
2017-06-08T04:26:55.757Z,68.4
2017-06-08T04:27:36.264Z,68.21
2017-06-08T04:28:16.781Z,68.21
2017-06-08T04:28:57.299Z,68.01
2017-06-08T04:29:37.818Z,68.21
2017-06-08T04:30:18.316Z,68.01
2017-06-08T04:30:58.820Z,68.14
2017-06-08T04:31:39.326Z,68.05
2017-06-08T04:32:19.841Z,67.57
2017-06-08T04:33:00.378Z,67.76
2017-06-08T04:33:40.856Z,67.95
2017-06-08T04:34:21.388Z,67.76
2017-06-08T04:35:01.914Z,67.76
2017-06-08T04:35:42.401Z,67.76
2017-06-08T04:36:22.883Z,67.57
2017-06-08T04:37:03.430Z,67.18
2017-06-08T04:37:43.928Z,66.45
2017-06-08T04:38:24.463Z,66.1
2017-06-08T04:39:04.954Z,64.5
2017-06-08T04:39:45.439Z,61.14
2017-06-08T04:40:25.960Z,58.02
2017-06-08T04:41:06.465Z,57.51
2017-06-08T04:41:46.917Z,59.02
2017-06-08T04:42:27.425Z,60.14
2017-06-08T04:43:07.952Z,61.2
2017-06-08T04:43:48.479Z,61.46
2017-06-08T04:44:28.994Z,61.84
2017-06-08T04:45:09.512Z,61.84
2017-06-08T04:45:50.030Z,62.23
2017-06-08T04:46:30.581Z,62.32
2017-06-08T04:47:11.077Z,62.1
2017-06-08T04:47:51.589Z,62.39
2017-06-08T04:48:32.064Z,62.13
2017-06-08T04:49:12.570Z,61.94
2017-06-08T04:49:53.062Z,61.81
2017-06-08T04:50:33.529Z,61.62
2017-06-08T04:51:13.987Z,62.01
2017-06-08T04:51:54.528Z,62.19
2017-06-08T04:52:34.968Z,61.72
2017-06-08T04:53:15.498Z,61.81
2017-06-08T04:53:55.999Z,61.72
2017-06-08T04:54:36.481Z,61.43
2017-06-08T04:55:16.983Z,61.72
2017-06-08T04:55:57.504Z,61.33
2017-06-08T04:56:38.073Z,61.62
2017-06-08T04:57:18.543Z,61.43
2017-06-08T04:57:59.119Z,61.43
2017-06-08T04:58:39.566Z,61.52
2017-06-08T04:59:20.208Z,61.14
2017-06-08T05:00:00.914Z,61.05
2017-06-08T05:00:41.661Z,60.18
2017-06-08T05:01:22.298Z,59.61
2017-06-08T05:02:02.861Z,59.32
2017-06-08T05:02:43.331Z,59.32
2017-06-08T05:03:24.195Z,59.32
2017-06-08T05:04:04.920Z,58.55
2017-06-08T05:04:46.041Z,58.74
2017-06-08T05:05:26.657Z,59.03
2017-06-08T05:06:07.163Z,59.22
2017-06-08T05:06:47.642Z,59.41
2017-06-08T05:07:28.131Z,58.94
2017-06-08T05:08:09.327Z,59.32
2017-06-08T05:08:49.931Z,58.45
2017-06-08T05:09:30.474Z,58.17
2017-06-08T05:10:10.949Z,58.55
2017-06-08T05:10:51.459Z,57.78
2017-06-08T05:11:31.932Z,57.88
2017-06-08T05:12:12.412Z,57.78
2017-06-08T05:12:52.898Z,57.88
2017-06-08T05:13:33.452Z,59.8
2017-06-08T05:14:13.950Z,64.79
2017-06-08T05:14:54.427Z,68.24
2017-06-08T05:15:34.950Z,69.49
2017-06-08T05:16:15.425Z,69.01
2017-06-08T05:16:55.904Z,70.45
2017-06-08T05:17:36.355Z,69.2
2017-06-08T05:18:16.899Z,67.86
2017-06-08T05:18:57.348Z,69.3
2017-06-08T05:19:37.898Z,69.78
2017-06-08T05:20:18.488Z,71.51
2017-06-08T05:20:59.007Z,71.7
2017-06-08T05:21:39.539Z,69.4
2017-06-08T05:22:20.009Z,72.66
2017-06-08T05:23:00.511Z,73.62
2017-06-08T05:23:40.999Z,70.84
2017-06-08T05:25:58.885Z,71.12
2017-06-08T05:26:39.394Z,70.84
2017-06-08T05:27:19.944Z,66.29
2017-06-08T05:28:00.460Z,61.11
2017-06-08T05:28:40.984Z,60.82
2017-06-08T05:29:21.459Z,62.65
2017-06-08T05:30:01.996Z,61.78
2017-06-08T05:30:42.464Z,65.81
2017-06-08T05:31:22.929Z,64.47
2017-06-08T05:32:03.471Z,63.99
2017-06-08T05:32:43.982Z,67.92
2017-06-08T05:33:24.448Z,68.02
2017-06-08T05:34:04.970Z,69.74
2017-06-08T05:34:45.532Z,71.03
2017-06-08T05:35:25.985Z,67.96
2017-06-08T05:36:06.489Z,66.52
2017-06-08T05:36:46.970Z,68.15
2017-06-08T05:37:27.456Z,69.36
2017-06-08T05:38:07.928Z,70.99
2017-06-08T05:38:48.433Z,71.98
2017-06-08T05:39:28.926Z,66.9
2017-06-08T05:40:09.469Z,67.76
2017-06-08T05:40:49.973Z,70.26
2017-06-08T05:41:30.434Z,68.24
2017-06-08T05:42:10.969Z,69.68
2017-06-08T05:42:51.466Z,71.41
2017-06-08T05:43:31.899Z,72.56
2017-06-08T05:44:12.565Z,69.59
2017-06-08T05:44:53.882Z,65.27
2017-06-08T05:45:35.322Z,66.33
2017-06-08T05:46:15.838Z,66.23
2017-06-08T05:46:56.323Z,65.36
2017-06-08T05:47:36.964Z,66.03
2017-06-08T05:48:17.497Z,66.23
2017-06-08T05:48:57.971Z,63.16
2017-06-08T05:49:38.442Z,65.27
2017-06-08T05:50:18.923Z,65.27
2017-06-08T05:50:59.421Z,64.4
2017-06-08T05:51:39.902Z,62.96
2017-06-08T05:52:20.486Z,66.03
2017-06-08T05:53:01.773Z,67.67
2017-06-08T05:53:42.335Z,64.22
2017-06-08T05:54:22.848Z,61.43
2017-06-08T05:55:03.298Z,64.79
2017-06-08T05:55:43.843Z,63.83
2017-06-08T05:56:24.309Z,62.96
2017-06-08T05:57:04.826Z,63.76
2017-06-08T05:57:45.301Z,64.43
2017-06-08T05:58:25.803Z,64.34
2017-06-08T05:59:06.348Z,63.19
2017-06-08T05:59:46.780Z,61.94
2017-06-08T06:00:27.269Z,62.42
2017-06-08T06:01:07.794Z,62.99
2017-06-08T06:01:48.308Z,62.45
2017-06-08T06:02:28.821Z,63.41
2017-06-08T06:03:09.673Z,65.01
2017-06-08T06:03:50.104Z,65.69
2017-06-08T06:04:30.631Z,66.36
2017-06-08T06:05:11.287Z,66.3
2017-06-08T06:05:51.749Z,65.43
2017-06-08T06:06:32.223Z,68.06
2017-06-08T06:07:12.766Z,69.5
2017-06-08T06:07:53.258Z,68.25
2017-06-08T06:08:33.784Z,66.91
2017-06-08T06:09:14.253Z,67.61
2017-06-08T06:09:54.716Z,69.44
2017-06-08T06:10:35.197Z,68.57
2017-06-08T06:11:15.722Z,68.57
2017-06-08T06:11:56.191Z,68.38
2017-06-08T06:12:36.738Z,70.3
2017-06-08T06:13:17.162Z,71.36
2017-06-08T06:13:57.645Z,69.24
2017-06-08T06:14:38.269Z,69.53
2017-06-08T06:15:18.798Z,70.3
2017-06-08T06:15:59.272Z,70.88
2017-06-08T06:16:39.820Z,68.96
2017-06-08T06:17:20.256Z,64.43
2017-06-08T06:18:00.747Z,63.09
2017-06-08T06:18:41.223Z,66.46
2017-06-08T06:19:21.712Z,69.63
2017-06-08T06:20:02.241Z,70.98
2017-06-08T06:20:42.768Z,71.55
2017-06-08T06:21:23.202Z,71.17
2017-06-08T06:22:03.698Z,67.71
2017-06-08T06:22:44.189Z,69.06
2017-06-08T06:23:24.730Z,73.09
2017-06-08T06:24:05.175Z,70.98
2017-06-08T06:24:45.671Z,71.17
2017-06-08T06:25:26.251Z,71.2
2017-06-08T06:26:06.717Z,70.92
2017-06-08T06:26:47.193Z,68.7
2017-06-08T06:27:27.690Z,68.51
2017-06-08T06:28:08.185Z,68.99
2017-06-08T06:28:48.676Z,68.03
2017-06-08T06:29:29.166Z,66.71
2017-06-08T06:30:09.683Z,66.91
2017-06-08T06:30:50.174Z,61.13
2017-06-08T06:31:30.734Z,60.17
2017-06-08T06:32:11.247Z,64.21
2017-06-08T06:32:51.774Z,64.12
2017-06-08T06:33:32.284Z,65.75
2017-06-08T06:34:12.870Z,67
2017-06-08T06:34:53.381Z,65.17
2017-06-08T06:35:33.839Z,60.07
2017-06-08T06:36:14.345Z,58.44
2017-06-08T06:36:54.884Z,60.27
2017-06-08T06:37:35.323Z,60.49
2017-06-08T06:38:15.827Z,59.23
2017-06-08T06:38:56.310Z,58.47
2017-06-08T06:39:36.805Z,57.21
2017-06-08T06:40:17.363Z,57.89
2017-06-08T06:40:57.815Z,57.69
2017-06-08T06:41:38.278Z,58.17
2017-06-08T06:42:18.857Z,60.39
2017-06-08T06:42:59.317Z,61.74
2017-06-08T06:43:40.011Z,61.96
2017-06-08T06:44:20.475Z,62.63
2017-06-08T06:45:00.970Z,61.29
2017-06-08T06:45:42.085Z,61.38
2017-06-08T06:46:22.591Z,61.07
2017-06-08T06:47:03.153Z,57.89
2017-06-08T06:47:43.646Z,57.5
2017-06-08T06:48:24.352Z,56.44
2017-06-08T06:49:04.687Z,58.08
2017-06-08T06:49:45.328Z,59.04
2017-06-08T06:50:25.809Z,57.69
2017-06-08T06:51:06.295Z,57.4
2017-06-08T06:51:46.791Z,58.85
2017-06-08T06:52:27.286Z,57.82
2017-06-08T06:53:07.793Z,60.52
2017-06-08T06:53:48.340Z,62.93
2017-06-08T06:54:28.890Z,63.21
2017-06-08T06:55:09.455Z,62.83
2017-06-08T06:55:49.883Z,61.99
2017-06-08T06:56:30.366Z,63.02
2017-06-08T06:57:10.920Z,61.13
2017-06-08T06:57:51.447Z,60.16
2017-06-08T06:58:31.970Z,61.8
2017-06-08T06:59:12.447Z,58.17
2017-06-08T06:59:52.915Z,59.42
2017-06-08T07:00:33.436Z,60.28
2017-06-08T07:01:13.899Z,60.38
2017-06-08T07:01:54.619Z,60.77
2017-06-08T07:02:35.094Z,58.58
2017-06-08T07:03:15.564Z,60.31
2017-06-08T07:03:56.047Z,58.1
2017-06-08T07:04:36.559Z,59.45
2017-06-08T07:05:17.141Z,58.19
2017-06-08T07:05:57.604Z,60.31
2017-06-08T07:06:38.077Z,61.28
2017-06-08T07:07:18.620Z,61.47
2017-06-08T07:07:59.090Z,57.81
2017-06-08T07:08:39.597Z,59.06
2017-06-08T07:09:20.076Z,62.44
2017-06-08T07:10:00.585Z,62.15
2017-06-08T07:10:41.056Z,61.47
2017-06-08T07:11:21.572Z,57.62
2017-06-08T07:12:02.059Z,58.32
2017-06-08T07:12:42.553Z,60.73
2017-06-08T07:13:23.062Z,60.54
2017-06-08T07:14:03.555Z,59.86
2017-06-08T07:14:44.030Z,60.64
2017-06-08T07:15:24.555Z,58.7
2017-06-08T07:16:05.012Z,57.74
2017-06-08T07:16:45.508Z,56.96
2017-06-08T07:17:26.018Z,57.26
2017-06-08T07:18:06.464Z,51.63
2017-06-08T07:18:46.995Z,51.25
2017-06-08T07:19:27.467Z,53.69
2017-06-08T07:20:07.964Z,56.36
2017-06-08T07:20:48.455Z,54.27
2017-06-08T07:21:28.945Z,51.65
2017-06-08T07:22:09.414Z,54.65
2017-06-08T07:22:49.922Z,57.64
2017-06-08T07:23:30.415Z,62.05
2017-06-08T07:24:10.900Z,60.31
2017-06-08T07:24:51.420Z,59.35
2017-06-08T07:25:31.920Z,55.01
2017-06-08T07:26:12.436Z,56.65
2017-06-08T07:26:52.918Z,58.55
2017-06-08T07:27:33.382Z,56.84
2017-06-08T07:28:13.889Z,59.8
2017-06-08T07:28:54.401Z,61.44
2017-06-08T07:29:34.849Z,61.64
2017-06-08T07:30:15.373Z,61.64
2017-06-08T07:30:55.829Z,59.32
2017-06-08T07:31:36.328Z,56.24
2017-06-08T07:32:16.812Z,55.85
2017-06-08T07:32:57.347Z,57.01
2017-06-08T07:33:37.997Z,54.6
2017-06-08T07:34:18.492Z,52.5
2017-06-08T07:34:58.988Z,50.18
2017-06-08T07:35:39.455Z,49.32
2017-06-08T07:36:19.980Z,50.79
2017-06-08T07:37:00.485Z,52.23
2017-06-08T07:37:40.966Z,52.53
2017-06-08T07:38:21.497Z,53.01
2017-06-08T07:39:01.967Z,54.84
2017-06-08T07:39:42.495Z,54.46
2017-06-08T07:40:23.005Z,56.2
2017-06-08T07:41:03.492Z,54.65
2017-06-08T07:41:43.993Z,55.71
2017-06-08T07:42:24.497Z,55.23
2017-06-08T07:43:05.243Z,56.56
2017-06-08T07:43:45.745Z,55.88
2017-06-08T07:44:26.257Z,54.27
2017-06-08T07:45:06.774Z,56.68
2017-06-08T07:45:47.207Z,58.58
2017-06-08T07:46:27.855Z,60.71
2017-06-08T07:47:08.329Z,61.09
2017-06-08T07:47:48.855Z,60.61
2017-06-08T07:48:29.315Z,58.19
2017-06-08T07:49:09.810Z,59.64
2017-06-08T07:49:50.317Z,60.22
2017-06-08T07:50:30.810Z,57.54
2017-06-08T07:51:11.298Z,55.33
2017-06-08T07:51:51.820Z,60.35
2017-06-08T07:52:32.409Z,56.29
2017-06-08T07:53:12.811Z,55.71
2017-06-08T07:53:53.272Z,59.28
2017-06-08T07:54:33.779Z,61.7
2017-06-08T07:55:14.305Z,56.41
2017-06-08T07:55:54.802Z,62.57
2017-06-08T07:56:35.295Z,63.05
2017-06-08T07:57:15.797Z,64.69
2017-06-08T07:57:56.305Z,63.24
2017-06-08T07:58:36.792Z,59.96
2017-06-08T07:59:17.288Z,56.1
2017-06-08T07:59:57.909Z,52.72
2017-06-08T08:00:38.430Z,57.45
2017-06-08T08:01:18.922Z,58.25
2017-06-08T08:01:59.434Z,58.51
2017-06-08T08:02:39.914Z,61.41
2017-06-08T08:03:20.405Z,61.51
2017-06-08T08:04:00.878Z,60.44
2017-06-08T08:04:41.391Z,61.31
2017-06-08T08:05:21.901Z,57.93
2017-06-08T08:06:02.511Z,61.09
2017-06-08T08:06:43.002Z,57.62
2017-06-08T08:07:23.487Z,62.54
2017-06-08T08:08:04.023Z,56.84
2017-06-08T08:08:44.540Z,58.77
2017-06-08T08:09:25.043Z,53.66
2017-06-08T08:10:05.556Z,59.74
2017-06-08T08:10:46.033Z,59.74
2017-06-08T08:11:26.513Z,56.07
2017-06-08T08:12:07.018Z,57.04
2017-06-08T08:12:47.515Z,58.1
2017-06-08T08:13:28.021Z,59.09
2017-06-08T08:14:08.531Z,60.71
2017-06-08T08:14:49.033Z,59.64
2017-06-08T08:15:29.537Z,57.81
2017-06-08T08:16:10.033Z,59.55
2017-06-08T08:16:50.523Z,57.9
2017-06-08T08:17:31.025Z,57.71
2017-06-08T08:18:11.541Z,58.29
2017-06-08T08:18:52.103Z,58.48
2017-06-08T08:19:32.609Z,60.71
2017-06-08T08:20:13.072Z,60.41
2017-06-08T08:20:53.569Z,59.74
2017-06-08T08:21:34.074Z,63.05
2017-06-08T08:22:14.543Z,63.92
2017-06-08T08:22:55.076Z,64.01
2017-06-08T08:23:35.689Z,63.34
2017-06-08T08:24:16.156Z,59.48
2017-06-08T08:24:56.701Z,59.89
2017-06-08T08:25:37.181Z,57.29
2017-06-08T08:26:17.750Z,60.57
2017-06-08T08:26:58.240Z,65.47
2017-06-08T08:27:38.631Z,65.47
2017-06-08T08:28:19.149Z,63.08
2017-06-08T08:28:59.637Z,62.98
2017-06-08T08:29:40.152Z,65.85
2017-06-08T08:30:20.647Z,66.05
2017-06-08T08:31:01.177Z,61.02
2017-06-08T08:31:41.673Z,63.34
2017-06-08T08:32:22.106Z,63.34
2017-06-08T08:33:02.632Z,62.02
2017-06-08T08:33:43.131Z,59.89
2017-06-08T08:34:23.638Z,56.71
2017-06-08T08:35:04.103Z,59.8
2017-06-08T08:35:44.585Z,64.79
2017-06-08T08:36:25.106Z,63.43
2017-06-08T08:37:05.588Z,65.56
2017-06-08T08:37:46.131Z,61.41
2017-06-08T08:38:26.592Z,59.38
2017-06-08T08:39:07.118Z,55.81
2017-06-08T08:39:47.585Z,61.89
2017-06-08T08:40:28.103Z,62.28
2017-06-08T08:41:08.612Z,62.95
2017-06-08T08:41:49.115Z,60.54
2017-06-08T08:42:29.655Z,54.65
2017-06-08T08:43:10.130Z,60.25
2017-06-08T08:43:50.729Z,59
2017-06-08T08:44:31.238Z,60.16
2017-06-08T08:45:11.716Z,58.22
2017-06-08T08:45:52.236Z,52.04
2017-06-08T08:46:32.719Z,59.28
2017-06-08T08:47:13.241Z,62.25
2017-06-08T08:47:53.719Z,62.15